Time;durP1;ratioP1;P1;durP2;ratioP2;P2;SDS_P1;SDS_P2;PMS_P1;PMS_P2;Temp;Humidity;BMP_temperature;BMP_pressure;BME280_temperature;BME280_humidity;BME280_pressure;Samples;Min_cycle;Max_cycle;Signal;HPM_P1;HPM_P2
2021/01/03 00:01:14;;;;;;;42.05;20.88;;;;;;;;;;5020768;28;20032;-65
2021/01/03 00:03:39;;;;;;;41.42;20.67;;;;;;;;;;5020054;28;20485;-64
2021/01/03 00:06:08;;;;;;;47.53;21.05;;;;;;;;;;5019960;28;20056;-63
2021/01/03 00:08:33;;;;;;;46.30;21.52;;;;;;;;;;5021049;28;20028;-65
2021/01/03 00:10:59;;;;;;;41.75;20.52;;;;;;;;;;5021392;28;20658;-64
2021/01/03 00:13:24;;;;;;;47.08;21.63;;;;;;;;;;5019966;28;21873;-64
2021/01/03 00:15:49;;;;;;;40.85;19.95;;;;;;;;;;5019753;28;20017;-67
2021/01/03 00:18:14;;;;;;;49.30;22.23;;;;;;;;;;5020897;28;20091;-65
2021/01/03 00:20:39;;;;;;;42.95;21.10;;;;;;;;;;5019634;28;20288;-63
2021/01/03 00:23:05;;;;;;;42.83;19.95;;;;;;;;;;5020818;28;20017;-64
2021/01/03 00:25:30;;;;;;;57.05;22.15;;;;;;;;;;5021598;28;20021;-64
2021/01/03 00:27:55;;;;;;;45.90;21.45;;;;;;;;;;5019820;28;20028;-65
2021/01/03 00:30:22;;;;;;;44.95;19.88;;;;;;;;;;5019683;28;20063;-65
2021/01/03 00:32:47;;;;;;;46.53;20.13;;;;;;;;;;5021011;28;20156;-66
2021/01/03 00:35:15;;;;;;;43.08;20.83;;;;;;;;;;5020227;28;20112;-65
2021/01/03 00:37:40;;;;;;;44.95;20.40;;;;;;;;;;5019814;28;20104;-65
2021/01/03 00:40:07;;;;;;;41.65;20.50;;;;;;;;;;5020389;28;20489;-65
2021/01/03 00:42:33;;;;;;;44.40;19.63;;;;;;;;;;5019362;28;20059;-65
2021/01/03 00:44:58;;;;;;;42.10;20.08;;;;;;;;;;5019853;28;20597;-65
2021/01/03 00:47:24;;;;;;;43.60;20.23;;;;;;;;;;5022214;28;20021;-65
2021/01/03 00:49:49;;;;;;;37.30;18.80;;;;;;;;;;5021269;28;20264;-66
2021/01/03 00:52:14;;;;;;;47.20;18.77;;;;;;;;;;5020232;28;20020;-64
2021/01/03 00:54:39;;;;;;;45.92;20.20;;;;;;;;;;5020270;28;20772;-64
2021/01/03 00:57:05;;;;;;;39.05;17.95;;;;;;;;;;5019017;28;20029;-63
2021/01/03 00:59:30;;;;;;;40.33;19.25;;;;;;;;;;5022127;28;20071;-66
2021/01/03 01:01:55;;;;;;;34.13;17.03;;;;;;;;;;5023463;28;20629;-66
2021/01/03 01:04:20;;;;;;;44.60;18.27;;;;;;;;;;5026930;28;20279;-66
2021/01/03 01:06:45;;;;;;;38.50;18.37;;;;;;;;;;5021095;28;20034;-66
2021/01/03 01:09:10;;;;;;;35.40;18.13;;;;;;;;;;5029240;28;20272;-65
2021/01/03 01:11:39;;;;;;;43.60;18.77;;;;;;;;;;5029764;28;20025;-65
2021/01/03 01:14:05;;;;;;;39.75;17.88;;;;;;;;;;5027912;28;20021;-65
2021/01/03 01:16:30;;;;;;;40.50;18.15;;;;;;;;;;5025959;28;20694;-65
2021/01/03 01:18:55;;;;;;;36.95;18.27;;;;;;;;;;5034053;28;20013;-66
2021/01/03 01:21:20;;;;;;;38.40;19.20;;;;;;;;;;5028712;28;20057;-66
2021/01/03 01:23:46;;;;;;;38.37;17.67;;;;;;;;;;5029131;28;20049;-63
2021/01/03 01:26:11;;;;;;;41.42;18.30;;;;;;;;;;5028911;28;20796;-67
2021/01/03 01:28:36;;;;;;;41.72;18.05;;;;;;;;;;5029476;28;20028;-64
2021/01/03 01:31:01;;;;;;;39.47;18.50;;;;;;;;;;5029062;28;20030;-65
2021/01/03 01:33:27;;;;;;;39.47;19.13;;;;;;;;;;5028772;28;20022;-65
2021/01/03 01:35:52;;;;;;;41.58;19.58;;;;;;;;;;5028954;28;20029;-65
2021/01/03 01:38:17;;;;;;;43.08;20.17;;;;;;;;;;5031147;28;20351;-65
2021/01/03 01:40:43;;;;;;;36.90;17.77;;;;;;;;;;5024824;28;20025;-66
2021/01/03 01:43:10;;;;;;;42.90;19.00;;;;;;;;;;5026975;28;20501;-64
2021/01/03 01:45:36;;;;;;;36.08;18.05;;;;;;;;;;5025200;28;20025;-66
2021/01/03 01:48:07;;;;;;;39.25;18.52;;;;;;;;;;5028573;28;20078;-65
2021/01/03 01:50:52;;;;;;;47.38;18.90;;;;;;;;;;5029521;28;20022;-64
2021/01/03 01:53:32;;;;;;;40.60;18.58;;;;;;;;;;5027940;28;20033;-64
2021/01/03 01:56:06;;;;;;;41.08;18.50;;;;;;;;;;5028953;28;20037;-64
2021/01/03 01:58:37;;;;;;;37.40;17.95;;;;;;;;;;5027064;28;20025;-64
2021/01/03 02:01:07;;;;;;;41.78;18.98;;;;;;;;;;5027513;28;20027;-64
2021/01/03 02:03:38;;;;;;;34.03;13.87;;;;;;;;;;5026363;28;20017;-64
2021/01/03 02:06:08;;;;;;;34.05;15.15;;;;;;;;;;5029500;28;20061;-64
2021/01/03 02:08:42;;;;;;;33.30;16.42;;;;;;;;;;5027182;28;20032;-64
2021/01/03 02:11:09;;;;;;;39.45;17.10;;;;;;;;;;5029004;28;20029;-64
2021/01/03 02:13:36;;;;;;;35.15;16.98;;;;;;;;;;5028425;28;20040;-64
2021/01/03 02:16:07;;;;;;;39.65;18.10;;;;;;;;;;5029511;28;20071;-64
2021/01/03 02:18:32;;;;;;;36.45;18.40;;;;;;;;;;5026421;28;20471;-64
2021/01/03 02:21:07;;;;;;;38.08;17.98;;;;;;;;;;5029717;28;20037;-64
2021/01/03 02:23:35;;;;;;;37.60;17.02;;;;;;;;;;5027009;28;20108;-64
2021/01/03 02:26:01;;;;;;;44.13;17.77;;;;;;;;;;5027376;28;20137;-64
2021/01/03 02:28:29;;;;;;;39.47;17.10;;;;;;;;;;5026584;28;20104;-64
2021/01/03 02:30:54;;;;;;;40.83;18.13;;;;;;;;;;5027988;28;20030;-64
2021/01/03 02:33:41;;;;;;;31.95;13.73;;;;;;;;;;5027548;28;20014;-64
2021/01/03 02:36:10;;;;;;;37.90;15.85;;;;;;;;;;5026236;28;20070;-63
2021/01/03 02:38:37;;;;;;;26.75;12.90;;;;;;;;;;5025820;28;20033;-64
2021/01/03 02:41:02;;;;;;;24.30;12.25;;;;;;;;;;5029695;28;20033;-64
2021/01/03 02:43:28;;;;;;;27.15;12.07;;;;;;;;;;5027493;28;20067;-65
2021/01/03 02:45:53;;;;;;;19.75;10.30;;;;;;;;;;5025123;28;20040;-64
2021/01/03 02:48:23;;;;;;;13.65;7.00;;;;;;;;;;5026006;28;20022;-66
2021/01/03 02:50:48;;;;;;;15.27;7.28;;;;;;;;;;5027815;28;20462;-65
2021/01/03 02:53:14;;;;;;;11.48;5.93;;;;;;;;;;5028186;28;20029;-65
2021/01/03 02:55:39;;;;;;;17.05;7.72;;;;;;;;;;5026027;28;20013;-65
2021/01/03 02:58:04;;;;;;;15.38;7.40;;;;;;;;;;5026592;28;20021;-64
2021/01/03 03:00:31;;;;;;;13.68;7.03;;;;;;;;;;5027426;28;20203;-64
2021/01/03 03:02:56;;;;;;;15.50;7.22;;;;;;;;;;5025672;28;20018;-64
2021/01/03 03:05:22;;;;;;;16.85;7.70;;;;;;;;;;5023482;28;20108;-65
2021/01/03 03:07:47;;;;;;;20.05;8.40;;;;;;;;;;5027998;28;20026;-65
2021/01/03 03:10:12;;;;;;;17.15;7.80;;;;;;;;;;5030379;28;20440;-64
2021/01/03 03:12:38;;;;;;;14.70;7.00;;;;;;;;;;5031030;28;20393;-65
2021/01/03 03:15:04;;;;;;;19.67;7.30;;;;;;;;;;5030049;28;20647;-65
2021/01/03 03:17:29;;;;;;;16.27;7.28;;;;;;;;;;5025516;28;20852;-66
2021/01/03 03:19:55;;;;;;;14.03;6.60;;;;;;;;;;5026081;28;20112;-64
2021/01/03 03:22:20;;;;;;;15.03;7.07;;;;;;;;;;5026472;28;20276;-65
2021/01/03 03:24:45;;;;;;;13.33;6.07;;;;;;;;;;5025088;28;20326;-64
2021/01/03 03:27:11;;;;;;;12.23;5.45;;;;;;;;;;5026670;28;20283;-65
2021/01/03 03:29:36;;;;;;;14.77;5.60;;;;;;;;;;5024416;28;20013;-63
2021/01/03 03:32:01;;;;;;;11.70;5.65;;;;;;;;;;5026489;28;20406;-65
2021/01/03 03:34:27;;;;;;;13.55;6.05;;;;;;;;;;5036533;22;20443;-64
2021/01/03 03:36:55;;;;;;;11.30;5.13;;;;;;;;;;5051576;28;20623;-65
2021/01/03 03:39:21;;;;;;;11.02;5.57;;;;;;;;;;5052578;28;20070;-65
2021/01/03 03:41:46;;;;;;;14.07;5.57;;;;;;;;;;5047616;28;20021;-65
2021/01/03 03:44:11;;;;;;;11.73;5.95;;;;;;;;;;5045368;28;20028;-64
2021/01/03 03:46:36;;;;;;;12.00;5.78;;;;;;;;;;5047750;28;20640;-65
2021/01/03 03:49:02;;;;;;;16.80;6.25;;;;;;;;;;5047933;28;20025;-64
2021/01/03 03:51:27;;;;;;;13.52;6.20;;;;;;;;;;5045696;28;20039;-65
2021/01/03 03:53:52;;;;;;;13.98;6.88;;;;;;;;;;5047428;28;20531;-64
2021/01/03 03:56:17;;;;;;;16.30;7.40;;;;;;;;;;5045538;28;20041;-65
2021/01/03 03:58:43;;;;;;;15.07;7.45;;;;;;;;;;5046382;28;20271;-63
2021/01/03 04:01:08;;;;;;;15.48;8.48;;;;;;;;;;5044362;28;20025;-65
2021/01/03 04:03:34;;;;;;;16.48;8.15;;;;;;;;;;5046146;28;20025;-65
2021/01/03 04:05:59;;;;;;;16.05;8.00;;;;;;;;;;5047221;28;20028;-65
2021/01/03 04:08:25;;;;;;;19.23;9.20;;;;;;;;;;5045418;28;20100;-65
2021/01/03 04:10:50;;;;;;;22.55;9.30;;;;;;;;;;5046362;28;20021;-65
2021/01/03 04:13:15;;;;;;;21.15;10.85;;;;;;;;;;5047900;28;20059;-66
2021/01/03 04:15:40;;;;;;;22.73;11.02;;;;;;;;;;5047203;28;20096;-63
2021/01/03 04:18:06;;;;;;;19.83;9.63;;;;;;;;;;5043054;28;20427;-66
2021/01/03 04:20:31;;;;;;;20.65;10.43;;;;;;;;;;5045385;28;20029;-64
2021/01/03 04:22:57;;;;;;;19.88;10.15;;;;;;;;;;5047000;28;20039;-64
2021/01/03 04:25:22;;;;;;;19.10;10.00;;;;;;;;;;5047858;28;20044;-66
2021/01/03 04:27:48;;;;;;;21.92;10.43;;;;;;;;;;5045776;28;20044;-64
2021/01/03 04:30:14;;;;;;;23.27;12.05;;;;;;;;;;5046556;28;20037;-65
2021/01/03 04:32:39;;;;;;;23.30;11.38;;;;;;;;;;5043958;28;20043;-65
2021/01/03 04:35:06;;;;;;;21.60;10.77;;;;;;;;;;5043499;28;20464;-64
2021/01/03 04:37:31;;;;;;;23.80;11.75;;;;;;;;;;5049457;28;20040;-65
2021/01/03 04:39:56;;;;;;;25.33;11.73;;;;;;;;;;5048275;28;20025;-65
2021/01/03 04:42:24;;;;;;;25.08;11.98;;;;;;;;;;5045836;28;20679;-65
2021/01/03 04:44:54;;;;;;;23.00;10.95;;;;;;;;;;5047606;28;20619;-65
2021/01/03 04:47:28;;;;;;;21.23;11.00;;;;;;;;;;5051523;28;20158;-65
2021/01/03 04:50:01;;;;;;;25.55;11.65;;;;;;;;;;5051793;28;20282;-65
2021/01/03 04:52:31;;;;;;;26.30;12.02;;;;;;;;;;5047930;28;20163;-64
2021/01/03 04:55:15;;;;;;;24.02;10.52;;;;;;;;;;5047653;28;20027;-65
2021/01/03 04:57:44;;;;;;;25.73;11.88;;;;;;;;;;5045991;28;20512;-65
2021/01/03 05:00:10;;;;;;;24.38;10.70;;;;;;;;;;5048021;28;20028;-64
2021/01/03 05:02:38;;;;;;;24.10;10.25;;;;;;;;;;5048994;28;20389;-66
2021/01/03 05:05:03;;;;;;;23.13;10.90;;;;;;;;;;5051108;28;20021;-65
2021/01/03 05:07:33;;;;;;;21.85;11.23;;;;;;;;;;5052768;28;20029;-64
2021/01/03 05:10:28;;;;;;;23.15;11.07;;;;;;;;;;5050816;28;20112;-64
2021/01/03 05:13:04;;;;;;;27.17;11.05;;;;;;;;;;5029194;28;20119;-65
2021/01/03 05:15:30;;;;;;;27.50;11.85;;;;;;;;;;5047906;28;21521;-64
2021/01/03 05:17:56;;;;;;;25.15;11.80;;;;;;;;;;5050059;28;20104;-64
2021/01/03 05:20:21;;;;;;;23.05;11.18;;;;;;;;;;5050347;28;20141;-65
2021/01/03 05:22:46;;;;;;;25.48;11.20;;;;;;;;;;5051655;28;20025;-64
2021/01/03 05:25:13;;;;;;;20.25;11.07;;;;;;;;;;5051611;28;20017;-64
2021/01/03 05:27:38;;;;;;;26.90;10.55;;;;;;;;;;5047928;28;20092;-63
2021/01/03 05:30:15;;;;;;;22.70;11.80;;;;;;;;;;5050428;28;20013;-64
2021/01/03 05:32:40;;;;;;;25.38;11.10;;;;;;;;;;5047001;28;20075;-64
2021/01/03 05:35:26;;;;;;;27.50;12.07;;;;;;;;;;5048387;28;20037;-64
2021/01/03 05:37:52;;;;;;;21.63;10.43;;;;;;;;;;5045561;28;20060;-65
2021/01/03 05:40:19;;;;;;;21.70;9.80;;;;;;;;;;5047417;28;20028;-65
2021/01/03 05:42:44;;;;;;;22.48;10.90;;;;;;;;;;5046996;28;20432;-64
2021/01/03 05:45:22;;;;;;;21.25;10.05;;;;;;;;;;5050422;28;20051;-64
2021/01/03 05:47:58;;;;;;;23.40;10.95;;;;;;;;;;5052248;28;20025;-64
2021/01/03 05:50:26;;;;;;;24.40;10.63;;;;;;;;;;5051213;28;20021;-65
2021/01/03 05:52:53;;;;;;;20.95;10.55;;;;;;;;;;5046976;28;20373;-65
2021/01/03 05:55:21;;;;;;;29.00;10.35;;;;;;;;;;5046519;28;20040;-64
2021/01/03 05:57:46;;;;;;;20.67;10.18;;;;;;;;;;5048114;28;20099;-64
2021/01/03 06:00:15;;;;;;;20.50;10.60;;;;;;;;;;5046703;28;20458;-64
2021/01/03 06:02:40;;;;;;;21.77;10.15;;;;;;;;;;5044632;28;20099;-65
2021/01/03 06:05:06;;;;;;;19.90;9.70;;;;;;;;;;5049758;28;20780;-64
2021/01/03 06:07:31;;;;;;;20.27;10.45;;;;;;;;;;5049423;28;20025;-65
2021/01/03 06:09:57;;;;;;;20.30;9.82;;;;;;;;;;5049849;28;20428;-64
2021/01/03 06:12:31;;;;;;;18.80;9.95;;;;;;;;;;5048896;28;20428;-64
2021/01/03 06:14:58;;;;;;;19.02;10.40;;;;;;;;;;5050010;28;20017;-64
2021/01/03 06:17:33;;;;;;;20.23;10.15;;;;;;;;;;5047861;28;20039;-64
2021/01/03 06:20:19;;;;;;;21.85;9.63;;;;;;;;;;5049608;28;20035;-65
2021/01/03 06:22:46;;;;;;;21.48;8.77;;;;;;;;;;5047798;28;20036;-64
2021/01/03 06:25:14;;;;;;;21.08;9.95;;;;;;;;;;5048999;28;20025;-64
2021/01/03 06:27:39;;;;;;;17.13;9.20;;;;;;;;;;5047485;28;20035;-64
2021/01/03 06:30:07;;;;;;;25.48;9.60;;;;;;;;;;5044715;28;20096;-64
2021/01/03 06:32:47;;;;;;;20.08;9.90;;;;;;;;;;5045097;28;20013;-65
2021/01/03 06:35:26;;;;;;;19.42;9.23;;;;;;;;;;5044005;28;20116;-63
2021/01/03 06:38:15;;;;;;;19.77;9.43;;;;;;;;;;5045809;28;20030;-64
2021/01/03 06:40:54;;;;;;;20.92;10.02;;;;;;;;;;5026276;28;20033;-64
2021/01/03 06:43:41;;;;;;;20.45;10.73;;;;;;;;;;5048068;28;20082;-64
2021/01/03 06:46:21;;;;;;;17.17;9.35;;;;;;;;;;5045634;28;20492;-63
2021/01/03 06:48:49;;;;;;;19.10;9.52;;;;;;;;;;5047760;28;20154;-64
2021/01/03 06:51:22;;;;;;;23.52;9.48;;;;;;;;;;5049917;28;20091;-66
2021/01/03 06:53:54;;;;;;;21.35;9.60;;;;;;;;;;5048311;28;20370;-65
2021/01/03 06:56:38;;;;;;;20.67;10.05;;;;;;;;;;5048369;28;20029;-65
2021/01/03 06:59:15;;;;;;;20.25;9.65;;;;;;;;;;5044091;28;20079;-64
2021/01/03 07:01:40;;;;;;;25.50;11.02;;;;;;;;;;5044252;28;20037;-65
2021/01/03 07:04:11;;;;;;;20.70;10.38;;;;;;;;;;5045557;28;20086;-64
2021/01/03 07:06:37;;;;;;;23.45;10.98;;;;;;;;;;5047973;28;20052;-64
2021/01/03 07:09:07;;;;;;;22.55;10.63;;;;;;;;;;5049154;28;20049;-63
2021/01/03 07:11:49;;;;;;;24.98;11.27;;;;;;;;;;5050676;28;20025;-64
2021/01/03 07:14:23;;;;;;;23.45;9.30;;;;;;;;;;5048968;28;20536;-64
2021/01/03 07:17:03;;;;;;;25.52;10.15;;;;;;;;;;5045860;28;20052;-64
2021/01/03 07:19:37;;;;;;;22.52;10.27;;;;;;;;;;5043076;28;20029;-65
2021/01/03 07:22:02;;;;;;;20.73;10.55;;;;;;;;;;5038120;28;20529;-66
2021/01/03 07:24:28;;;;;;;20.42;9.95;;;;;;;;;;5043414;28;20425;-66
2021/01/03 07:27:11;;;;;;;26.45;11.07;;;;;;;;;;5037583;28;20690;-65
2021/01/03 07:29:47;;;;;;;26.38;10.73;;;;;;;;;;5041377;28;20095;-64
2021/01/03 07:32:14;;;;;;;22.40;11.63;;;;;;;;;;5045063;28;20018;-64
2021/01/03 07:34:39;;;;;;;19.98;9.88;;;;;;;;;;5041796;28;20017;-67
2021/01/03 07:37:11;;;;;;;21.60;10.90;;;;;;;;;;5048400;28;20047;-66
2021/01/03 07:39:54;;;;;;;22.60;10.65;;;;;;;;;;5041126;28;20284;-66
2021/01/03 07:42:21;;;;;;;18.23;10.35;;;;;;;;;;5043959;28;20039;-66
2021/01/03 07:44:47;;;;;;;20.75;10.25;;;;;;;;;;5053023;28;20063;-63
2021/01/03 07:47:32;;;;;;;22.15;10.43;;;;;;;;;;5043723;28;20029;-63
2021/01/03 07:50:19;;;;;;;18.70;10.23;;;;;;;;;;5048992;28;20075;-63
2021/01/03 07:52:47;;;;;;;27.35;11.73;;;;;;;;;;5033596;28;20025;-63
2021/01/03 07:55:14;;;;;;;19.40;10.45;;;;;;;;;;5040932;28;20032;-65
2021/01/03 07:57:40;;;;;;;23.00;11.07;;;;;;;;;;5040550;28;20029;-64
2021/01/03 08:00:05;;;;;;;22.52;11.07;;;;;;;;;;5048168;28;20047;-65
2021/01/03 08:02:31;;;;;;;22.75;11.57;;;;;;;;;;5044260;28;20393;-64
2021/01/03 08:04:58;;;;;;;22.98;11.93;;;;;;;;;;5034719;28;20041;-64
2021/01/03 08:07:23;;;;;;;24.17;11.25;;;;;;;;;;5046998;28;20090;-64
2021/01/03 08:09:49;;;;;;;21.23;12.35;;;;;;;;;;5035361;28;20017;-64
2021/01/03 08:12:17;;;;;;;23.65;11.90;;;;;;;;;;5039530;28;20389;-64
2021/01/03 08:14:45;;;;;;;21.65;11.63;;;;;;;;;;5049008;28;20009;-64
2021/01/03 08:17:13;;;;;;;22.30;10.75;;;;;;;;;;5047434;28;20427;-64
2021/01/03 08:19:38;;;;;;;24.92;11.02;;;;;;;;;;5049932;28;20077;-64
2021/01/03 08:22:03;;;;;;;28.20;13.13;;;;;;;;;;5048980;28;20408;-64
2021/01/03 08:24:29;;;;;;;20.98;11.23;;;;;;;;;;5043835;28;20021;-64
2021/01/03 08:27:00;;;;;;;24.20;11.50;;;;;;;;;;5039256;28;20036;-64
2021/01/03 08:29:25;;;;;;;;;;;;;;;;;;5044056;28;20078;-64
2021/01/03 08:31:51;;;;;;;23.13;11.82;;;;;;;;;;5045077;28;19966;-64
2021/01/03 08:34:19;;;;;;;25.27;12.60;;;;;;;;;;5042067;28;20024;-64
2021/01/03 08:36:44;;;;;;;20.67;10.98;;;;;;;;;;5042310;28;20062;-64
2021/01/03 08:39:14;;;;;;;20.48;11.20;;;;;;;;;;5046002;28;20024;-64
2021/01/03 08:41:42;;;;;;;20.92;10.73;;;;;;;;;;5047122;28;20048;-64
2021/01/03 08:44:09;;;;;;;22.10;10.77;;;;;;;;;;5047958;28;20564;-64
2021/01/03 08:46:35;;;;;;;19.85;10.98;;;;;;;;;;5040488;28;20025;-64
2021/01/03 08:49:07;;;;;;;25.45;11.63;;;;;;;;;;5038343;28;20036;-64
2021/01/03 08:51:33;;;;;;;24.92;11.45;;;;;;;;;;5044565;28;20036;-64
2021/01/03 08:54:03;;;;;;;21.42;11.20;;;;;;;;;;5047416;28;20025;-64
2021/01/03 08:56:34;;;;;;;20.20;10.40;;;;;;;;;;5048105;28;20453;-64
2021/01/03 08:59:00;;;;;;;19.88;9.90;;;;;;;;;;5045258;28;20543;-64
2021/01/03 09:01:26;;;;;;;21.65;10.57;;;;;;;;;;5050493;28;20040;-64
2021/01/03 09:03:53;;;;;;;22.80;10.90;;;;;;;;;;5043353;28;20029;-65
2021/01/03 09:06:19;;;;;;;18.75;9.93;;;;;;;;;;5034489;28;20038;-65
2021/01/03 09:08:44;;;;;;;20.15;10.40;;;;;;;;;;5045930;28;20024;-65
2021/01/03 09:11:14;;;;;;;22.00;9.75;;;;;;;;;;5045119;28;20492;-64
2021/01/03 09:13:49;;;;;;;16.55;9.18;;;;;;;;;;5035446;28;20032;-64
2021/01/03 09:16:20;;;;;;;20.48;9.15;;;;;;;;;;5031807;28;20022;-64
2021/01/03 09:19:04;;;;;;;19.98;9.57;;;;;;;;;;5040969;28;20029;-64
2021/01/03 09:21:30;;;;;;;19.60;9.80;;;;;;;;;;5049981;28;20029;-64
2021/01/03 09:24:05;;;;;;;20.95;9.85;;;;;;;;;;5050223;28;20036;-64
2021/01/03 09:26:39;;;;;;;17.65;8.57;;;;;;;;;;5043045;28;20035;-64
2021/01/03 09:29:06;;;;;;;19.35;9.45;;;;;;;;;;5039191;28;20032;-65
2021/01/03 09:31:32;;;;;;;18.98;10.02;;;;;;;;;;5048042;28;20024;-66
2021/01/03 09:34:12;;;;;;;21.35;10.10;;;;;;;;;;5044704;28;20025;-63
2021/01/03 09:36:50;;;;;;;19.77;9.63;;;;;;;;;;5073483;22;20057;-67
2021/01/03 09:39:34;;;;;;;18.77;10.25;;;;;;;;;;5050821;28;20104;-67
2021/01/03 09:42:19;;;;;;;17.42;9.82;;;;;;;;;;5046903;28;20021;-67
2021/01/03 09:44:52;;;;;;;19.05;10.55;;;;;;;;;;5039352;28;20108;-67
2021/01/03 09:47:17;;;;;;;18.60;9.55;;;;;;;;;;5046065;28;20035;-67
2021/01/03 09:49:48;;;;;;;22.70;10.13;;;;;;;;;;5044568;28;20095;-67
2021/01/03 09:52:13;;;;;;;;;;;;;;;;;;5046464;28;20992;-67
2021/01/03 09:54:56;;;;;;;20.08;9.95;;;;;;;;;;5046536;28;20271;-67
2021/01/03 09:57:34;;;;;;;20.35;9.82;;;;;;;;;;5044776;28;20032;-67
2021/01/03 09:59:59;;;;;;;19.75;10.80;;;;;;;;;;5045181;28;20020;-67
2021/01/03 10:02:25;;;;;;;18.40;9.77;;;;;;;;;;5046396;28;20032;-67
2021/01/03 10:04:50;;;;;;;20.42;11.32;;;;;;;;;;5049992;28;20090;-67
2021/01/03 10:07:21;;;;;;;17.77;9.25;;;;;;;;;;5046993;28;20531;-68
2021/01/03 10:09:46;;;;;;;;;;;;;;;;;;5043016;28;20024;-67
2021/01/03 10:12:30;;;;;;;20.75;10.65;;;;;;;;;;5044884;28;19913;-67
2021/01/03 10:15:09;;;;;;;18.15;9.93;;;;;;;;;;5040584;28;20541;-66
2021/01/03 10:17:35;;;;;;;20.17;10.00;;;;;;;;;;5045662;28;20070;-67
2021/01/03 10:20:01;;;;;;;21.55;9.43;;;;;;;;;;5042139;28;20431;-67
2021/01/03 10:22:28;;;;;;;21.80;11.10;;;;;;;;;;5047152;28;20020;-67
2021/01/03 10:24:55;;;;;;;19.20;10.77;;;;;;;;;;5040575;28;20082;-67
2021/01/03 10:27:20;;;;;;;26.55;10.38;;;;;;;;;;5039706;28;20032;-67
2021/01/03 10:29:45;;;;;;;20.23;10.63;;;;;;;;;;5039054;28;20021;-67
2021/01/03 10:32:10;;;;;;;22.17;11.00;;;;;;;;;;5039293;28;20508;-67
2021/01/03 10:34:36;;;;;;;20.80;9.73;;;;;;;;;;5040129;28;20260;-67
2021/01/03 10:37:01;;;;;;;17.45;9.70;;;;;;;;;;5042413;28;20516;-67
2021/01/03 10:39:27;;;;;;;21.30;10.88;;;;;;;;;;5041826;28;20040;-67
2021/01/03 10:41:53;;;;;;;15.65;9.25;;;;;;;;;;5044842;28;20033;-67
2021/01/03 10:44:18;;;;;;;19.30;9.95;;;;;;;;;;5042803;28;20091;-67
2021/01/03 10:46:46;;;;;;;21.23;10.68;;;;;;;;;;5045453;28;20029;-67
2021/01/03 10:49:11;;;;;;;16.05;9.43;;;;;;;;;;5052140;28;20055;-67
2021/01/03 10:51:37;;;;;;;19.55;9.43;;;;;;;;;;5046615;28;20029;-67
2021/01/03 10:54:03;;;;;;;18.33;9.85;;;;;;;;;;5041616;28;20036;-67
2021/01/03 10:56:28;;;;;;;17.80;9.38;;;;;;;;;;5055266;28;20029;-67
2021/01/03 10:58:54;;;;;;;16.73;9.52;;;;;;;;;;5039273;28;20029;-67
2021/01/03 11:01:19;;;;;;;15.55;8.85;;;;;;;;;;5041416;28;20040;-67
2021/01/03 11:03:45;;;;;;;15.82;9.48;;;;;;;;;;5044687;28;20025;-67
2021/01/03 11:06:10;;;;;;;16.10;8.63;;;;;;;;;;5045244;28;21049;-67
2021/01/03 11:08:36;;;;;;;15.20;9.45;;;;;;;;;;5042969;28;20496;-67
2021/01/03 11:11:02;;;;;;;14.80;9.23;;;;;;;;;;5039015;28;20056;-67
2021/01/03 11:13:27;;;;;;;19.10;8.82;;;;;;;;;;5045406;28;20056;-67
2021/01/03 11:15:52;;;;;;;12.70;8.27;;;;;;;;;;5042843;28;20143;-68
2021/01/03 11:18:17;;;;;;;16.85;8.30;;;;;;;;;;5042788;28;20021;-67
2021/01/03 11:20:42;;;;;;;16.35;9.20;;;;;;;;;;5053138;28;20017;-68
2021/01/03 11:23:07;;;;;;;19.98;8.30;;;;;;;;;;5043971;28;20029;-67
2021/01/03 11:25:33;;;;;;;17.92;8.82;;;;;;;;;;5042551;28;20082;-68
2021/01/03 11:27:58;;;;;;;15.70;8.27;;;;;;;;;;5047006;28;20033;-67
2021/01/03 11:30:23;;;;;;;16.15;7.68;;;;;;;;;;5042494;28;20033;-67
2021/01/03 11:32:48;;;;;;;19.73;10.05;;;;;;;;;;5040159;28;20025;-67
2021/01/03 11:35:14;;;;;;;15.02;8.85;;;;;;;;;;5043875;28;20013;-67
2021/01/03 11:37:39;;;;;;;17.92;9.77;;;;;;;;;;5046752;28;20035;-67
2021/01/03 11:40:05;;;;;;;16.83;8.20;;;;;;;;;;5038286;28;20548;-68
2021/01/03 11:42:32;;;;;;;14.30;8.23;;;;;;;;;;5045185;28;20024;-67
2021/01/03 11:44:57;;;;;;;15.38;9.30;;;;;;;;;;5042760;28;20032;-67
2021/01/03 11:47:23;;;;;;;19.50;8.60;;;;;;;;;;5041659;28;20119;-67
2021/01/03 11:49:48;;;;;;;12.80;7.75;;;;;;;;;;5050707;28;21388;-67
2021/01/03 11:52:14;;;;;;;10.98;7.50;;;;;;;;;;5043580;28;20028;-67
2021/01/03 11:54:39;;;;;;;12.07;7.32;;;;;;;;;;5046764;28;20024;-67
2021/01/03 11:57:05;;;;;;;14.60;9.27;;;;;;;;;;5047748;28;20036;-67
2021/01/03 11:59:30;;;;;;;17.17;8.77;;;;;;;;;;5049330;28;20029;-67
2021/01/03 12:01:56;;;;;;;17.30;9.52;;;;;;;;;;5048139;28;20021;-67
2021/01/03 12:04:22;;;;;;;16.13;8.40;;;;;;;;;;5049213;28;20488;-67
2021/01/03 12:06:52;;;;;;;15.35;8.68;;;;;;;;;;5048128;28;20037;-67
2021/01/03 12:09:17;;;;;;;17.38;9.32;;;;;;;;;;5049211;28;20619;-67
2021/01/03 12:11:42;;;;;;;20.67;10.50;;;;;;;;;;5048872;28;20116;-67
2021/01/03 12:14:07;;;;;;;25.70;12.55;;;;;;;;;;5047229;28;20266;-67
2021/01/03 12:16:33;;;;;;;25.75;12.23;;;;;;;;;;5048423;28;20350;-67
2021/01/03 12:18:58;;;;;;;20.40;9.15;;;;;;;;;;5048436;28;20021;-67
2021/01/03 12:21:25;;;;;;;22.23;10.32;;;;;;;;;;5049365;28;20051;-67
2021/01/03 12:23:50;;;;;;;17.13;9.40;;;;;;;;;;5049373;28;20020;-67
2021/01/03 12:26:16;;;;;;;14.70;7.93;;;;;;;;;;5048976;28;20094;-67
2021/01/03 12:28:41;;;;;;;19.10;9.73;;;;;;;;;;5048524;28;20070;-67
2021/01/03 12:31:06;;;;;;;22.33;9.90;;;;;;;;;;5049152;28;20009;-67
2021/01/03 12:33:31;;;;;;;16.40;8.88;;;;;;;;;;5046139;28;20074;-67
2021/01/03 12:35:56;;;;;;;15.23;8.47;;;;;;;;;;5042997;28;20056;-67
2021/01/03 12:38:21;;;;;;;12.00;6.78;;;;;;;;;;5047778;28;20266;-67
2021/01/03 12:40:47;;;;;;;13.15;7.55;;;;;;;;;;5048585;28;20021;-67
2021/01/03 12:43:12;;;;;;;13.37;7.53;;;;;;;;;;5045335;28;20025;-67
2021/01/03 12:45:37;;;;;;;12.60;5.90;;;;;;;;;;5047007;28;20321;-68
2021/01/03 12:48:02;;;;;;;14.20;7.70;;;;;;;;;;5045261;28;20287;-68
2021/01/03 12:50:27;;;;;;;11.77;6.05;;;;;;;;;;5047139;28;20726;-68
2021/01/03 12:52:53;;;;;;;14.45;7.97;;;;;;;;;;5050639;28;20020;-67
2021/01/03 12:55:18;;;;;;;9.77;5.70;;;;;;;;;;5048403;28;20065;-67
2021/01/03 12:57:43;;;;;;;10.90;5.85;;;;;;;;;;5047762;28;20021;-67
2021/01/03 13:00:09;;;;;;;11.88;6.72;;;;;;;;;;5047736;28;20167;-67
2021/01/03 13:02:34;;;;;;;12.50;7.10;;;;;;;;;;5046586;28;20029;-67
2021/01/03 13:04:59;;;;;;;11.50;6.05;;;;;;;;;;5048112;28;20025;-67
2021/01/03 13:07:24;;;;;;;14.45;6.72;;;;;;;;;;5052241;28;20466;-67
2021/01/03 13:09:50;;;;;;;10.88;5.57;;;;;;;;;;5052403;28;20020;-68
2021/01/03 13:12:15;;;;;;;11.48;5.75;;;;;;;;;;5052052;28;20021;-67
2021/01/03 13:14:40;;;;;;;11.15;5.15;;;;;;;;;;5050192;28;20028;-67
2021/01/03 13:17:05;;;;;;;8.75;5.38;;;;;;;;;;5048098;28;20016;-67
2021/01/03 13:19:31;;;;;;;11.95;6.45;;;;;;;;;;5047422;28;20071;-67
2021/01/03 13:21:56;;;;;;;10.45;6.05;;;;;;;;;;5048077;28;20079;-67
2021/01/03 13:24:23;;;;;;;12.68;4.93;;;;;;;;;;5048722;28;20108;-68
2021/01/03 13:26:49;;;;;;;12.85;6.68;;;;;;;;;;5044119;28;20100;-68
2021/01/03 13:29:14;;;;;;;13.80;5.95;;;;;;;;;;5049117;28;20017;-68
2021/01/03 13:31:39;;;;;;;9.73;5.93;;;;;;;;;;5044630;28;20492;-68
2021/01/03 13:34:04;;;;;;;7.82;5.13;;;;;;;;;;5047857;28;20029;-68
2021/01/03 13:36:30;;;;;;;11.82;5.82;;;;;;;;;;5047730;28;20033;-67
2021/01/03 13:38:55;;;;;;;8.77;6.07;;;;;;;;;;5050781;28;20056;-67
2021/01/03 13:41:20;;;;;;;11.63;6.28;;;;;;;;;;5043185;28;20279;-68
2021/01/03 13:43:46;;;;;;;10.85;5.45;;;;;;;;;;5051928;28;20025;-68
2021/01/03 13:46:12;;;;;;;12.73;6.80;;;;;;;;;;5049339;28;20032;-67
2021/01/03 13:48:38;;;;;;;9.00;4.97;;;;;;;;;;5047994;28;20021;-68
2021/01/03 13:51:03;;;;;;;11.18;5.57;;;;;;;;;;5049599;28;20024;-68
2021/01/03 13:53:28;;;;;;;9.70;5.57;;;;;;;;;;5049743;28;20036;-68
2021/01/03 13:55:54;;;;;;;8.70;5.35;;;;;;;;;;5047105;28;20480;-68
2021/01/03 13:58:19;;;;;;;9.38;5.55;;;;;;;;;;5046707;28;20033;-68
2021/01/03 14:00:45;;;;;;;10.93;5.67;;;;;;;;;;5045916;28;20443;-67
2021/01/03 14:03:10;;;;;;;12.13;6.07;;;;;;;;;;5050077;28;20362;-68
2021/01/03 14:05:38;;;;;;;9.85;6.13;;;;;;;;;;5049279;28;20044;-68
2021/01/03 14:08:03;;;;;;;16.55;7.72;;;;;;;;;;5049106;28;20029;-68
2021/01/03 14:10:28;;;;;;;13.45;8.15;;;;;;;;;;5049255;28;20078;-67
2021/01/03 14:12:54;;;;;;;11.73;5.97;;;;;;;;;;5049919;28;20028;-68
2021/01/03 14:15:19;;;;;;;12.38;6.70;;;;;;;;;;5046003;28;20025;-68
2021/01/03 14:17:44;;;;;;;11.77;6.03;;;;;;;;;;5049734;28;20041;-68
2021/01/03 14:20:13;;;;;;;8.93;5.78;;;;;;;;;;5048413;28;20017;-68
2021/01/03 14:22:38;;;;;;;12.18;6.47;;;;;;;;;;5049236;28;20111;-68
2021/01/03 14:25:05;;;;;;;9.77;5.43;;;;;;;;;;5048893;28;20103;-68
2021/01/03 14:27:30;;;;;;;14.85;6.13;;;;;;;;;;5048303;28;20462;-68